No particular awareness of the weather is required.    There are no Weather-warnings


Meteo18 Weather Cam more information Meteo18 Weather Cam


Thunder radar more information blitzortung!


Rain radar more information rain snow radar


Visit our other weather sites:

Template documentation
and downloads

And another site



Weather Underground History page Text

Daily Summary for July 11, 2017 Units:  English    Metric   Both
« Previous Day
Next Day »
Daily Weekly Monthly Yearly Custom
  High: Low: Average:
Temperature: TemperatureC °F 14.2 °F 18.3 °F
Dew Point: DewpointC °F 12.0 °F 14.2 °F
Humidity: Humidity % 50 % 79 %
Wind Speed: WindSpeedKMH mph 0.0 mph 6.8 mph
Wind Gust: WindSpeedGustKMH mph - -
Wind:- - SW
Pressure: PressurehPa in 1014.8 in -
Precipitation: 0.3 in    
Historical Graphs
 
 
Tabular Data for July 11, 2017
Time Temperature Dew Point Pressure Wind Wind Speed Wind Gust Humidity Rainfall Rate (Hourly)
TemperatureC °F DewpointC °F PressurehPa in Calm     Humidity % HourlyPrecipMM in
00:02 16.6 °F 15.8 °F 1016.1 in SW 3.2 mph 6.4 mph 95 % 0.0 in
00:07 16.7 °F 16.1 °F 1016.1 in SW 3.2 mph 6.4 mph 96 % 0.0 in
00:12 16.6 °F 16.0 °F 1016.1 in SW 3.2 mph 6.4 mph 96 % 0.0 in
00:17 16.7 °F 16.1 °F 1016.1 in SW 4.8 mph 6.4 mph 96 % 0.0 in
00:22 16.8 °F 16.2 °F 1016.1 in SW 3.2 mph 6.4 mph 96 % 0.0 in
00:32 16.5 °F 15.9 °F 1016.1 in WSW 3.2 mph 8.0 mph 96 % 0.0 in
00:37 16.4 °F 15.8 °F 1016.1 in SW 4.8 mph 6.4 mph 96 % 0.0 in
00:42 16.3 °F 15.7 °F 1016.1 in SSW 6.4 mph 6.4 mph 96 % 0.0 in
00:47 16.1 °F 15.5 °F 1016.1 in SSW 1.6 mph 9.7 mph 96 % 0.0 in
00:52 16.3 °F 15.8 °F 1016.5 in WSW 3.2 mph 12.9 mph 97 % 0.0 in
00:57 16.5 °F 16.0 °F 1016.5 in WSW 4.8 mph 12.9 mph 97 % 0.0 in
01:02 16.6 °F 16.1 °F 1016.5 in West 4.8 mph 12.9 mph 97 % 0.0 in
01:12 16.7 °F 16.2 °F 1016.5 in Calm   11.3 mph 97 % 0.0 in
01:17 16.7 °F 16.2 °F 1016.5 in Calm   9.7 mph 97 % 0.0 in
01:22 16.7 °F 16.2 °F 1016.5 in Calm   4.8 mph 97 % 0.0 in
01:32 16.6 °F 16.1 °F 1016.5 in SE 1.6 mph 1.6 mph 97 % 0.0 in
01:42 16.7 °F 16.2 °F 1016.5 in Calm   3.2 mph 97 % 0.0 in
01:47 16.7 °F 16.2 °F 1016.5 in SW 1.6 mph 3.2 mph 97 % 0.0 in
01:52 16.7 °F 16.2 °F 1016.5 in Calm   6.4 mph 97 % 0.0 in
01:57 16.7 °F 16.2 °F 1016.5 in WSW 3.2 mph 6.4 mph 97 % 0.0 in
02:02 16.7 °F 16.2 °F 1016.1 in Calm   6.4 mph 97 % 0.0 in
02:07 16.6 °F 16.1 °F 1016.1 in SW 4.8 mph 4.8 mph 97 % 0.0 in
02:12 16.6 °F 16.1 °F 1016.1 in SW 3.2 mph 4.8 mph 97 % 0.0 in
02:17 16.6 °F 16.1 °F 1016.1 in South 1.6 mph 6.4 mph 97 % 0.0 in
02:22 16.5 °F 16.0 °F 1016.1 in SW 1.6 mph 6.4 mph 97 % 0.0 in
02:27 16.5 °F 16.0 °F 1016.5 in SSW 3.2 mph 6.4 mph 97 % 0.0 in
02:32 16.4 °F 15.9 °F 1016.5 in WSW 4.8 mph 6.4 mph 97 % 0.0 in
02:37 16.4 °F 15.9 °F 1016.1 in WSW 1.6 mph 6.4 mph 97 % 0.0 in
02:42 16.4 °F 15.9 °F 1016.5 in Calm   8.0 mph 97 % 0.0 in
02:47 16.4 °F 15.9 °F 1016.5 in WNW 1.6 mph 8.0 mph 97 % 0.0 in
02:52 16.4 °F 15.9 °F 1016.1 in Calm   8.0 mph 97 % 0.0 in
02:57 16.3 °F 15.8 °F 1016.1 in Calm   4.8 mph 97 % 0.0 in
03:02 16.3 °F 15.8 °F 1016.1 in Calm   4.8 mph 97 % 0.0 in
03:12 16.3 °F 15.8 °F 1016.1 in Calm   3.2 mph 97 % 0.0 in
03:17 16.3 °F 15.8 °F 1016.1 in Calm   3.2 mph 97 % 0.0 in
03:22 16.3 °F 15.8 °F 1016.1 in Calm   3.2 mph 97 % 0.0 in
03:27 16.3 °F 15.8 °F 1015.8 in Calm   3.2 mph 97 % 0.0 in
03:32 16.3 °F 15.8 °F 1016.1 in Calm   1.6 mph 97 % 0.0 in
03:42 16.1 °F 15.6 °F 1016.1 in SSW 3.2 mph 8.0 mph 97 % 0.3 in
03:47 16.1 °F 15.6 °F 1016.1 in SW 6.4 mph 12.9 mph 97 % 0.3 in
03:52 16.0 °F 15.5 °F 1016.1 in Calm   12.9 mph 97 % 0.3 in
03:57 15.9 °F 15.4 °F 1016.1 in SSW 3.2 mph 12.9 mph 97 % 0.3 in
04:02 15.9 °F 15.4 °F 1016.1 in SW 3.2 mph 9.7 mph 97 % 0.3 in
04:07 15.7 °F 15.2 °F 1016.1 in Calm   8.0 mph 97 % 0.3 in
04:12 15.6 °F 15.1 °F 1016.1 in SSW 3.2 mph 8.0 mph 97 % 0.3 in
04:17 15.4 °F 14.9 °F 1016.1 in SSW 3.2 mph 6.4 mph 97 % 0.3 in
04:22 15.3 °F 14.8 °F 1016.1 in SSW 4.8 mph 9.7 mph 97 % 0.3 in
04:27 15.2 °F 14.7 °F 1016.1 in SSW 3.2 mph 9.7 mph 97 % 0.3 in
04:32 15.1 °F 14.6 °F 1015.8 in SW 3.2 mph 9.7 mph 97 % 0.3 in
04:37 14.9 °F 14.4 °F 1015.8 in SW 3.2 mph 6.4 mph 97 % 0.0 in
04:42 14.8 °F 14.3 °F 1015.8 in SSW 4.8 mph 4.8 mph 97 % 0.0 in
04:47 14.8 °F 14.3 °F 1015.8 in SW 3.2 mph 6.4 mph 97 % 0.0 in
04:52 14.7 °F 14.2 °F 1015.8 in SSW 1.6 mph 6.4 mph 97 % 0.0 in
04:57 14.6 °F 14.1 °F 1015.8 in SSW 3.2 mph 4.8 mph 97 % 0.0 in
05:02 14.4 °F 13.9 °F 1015.8 in SSW 3.2 mph 4.8 mph 97 % 0.0 in
05:07 14.4 °F 13.9 °F 1015.8 in Calm   6.4 mph 97 % 0.0 in
05:12 14.3 °F 13.8 °F 1015.8 in WSW 3.2 mph 6.4 mph 97 % 0.0 in
05:17 14.3 °F 13.8 °F 1015.8 in SW 1.6 mph 4.8 mph 97 % 0.0 in
05:22 14.3 °F 13.8 °F 1015.8 in SW 1.6 mph 4.8 mph 97 % 0.0 in
05:32 14.2 °F 13.7 °F 1015.8 in Calm   3.2 mph 97 % 0.0 in
05:37 14.2 °F 13.7 °F 1016.1 in Calm   3.2 mph 97 % 0.0 in
05:42 14.2 °F 13.7 °F 1016.1 in SSW 3.2 mph 3.2 mph 97 % 0.0 in
05:47 14.2 °F 13.7 °F 1016.5 in SW 3.2 mph 6.4 mph 97 % 0.0 in
05:52 14.2 °F 13.7 °F 1016.5 in SW 11.3 mph 11.3 mph 97 % 0.0 in
05:57 14.2 °F 13.6 °F 1016.5 in SW 1.6 mph 12.9 mph 96 % 0.0 in
06:02 14.3 °F 13.7 °F 1016.5 in Calm   12.9 mph 96 % 0.0 in
06:12 14.4 °F 13.8 °F 1016.1 in West 4.8 mph 12.9 mph 96 % 0.0 in
06:17 14.4 °F 13.6 °F 1016.1 in SSW 1.6 mph 9.7 mph 95 % 0.0 in
06:22 14.4 °F 13.6 °F 1016.1 in WSW 4.8 mph 9.7 mph 95 % 0.0 in
06:27 14.5 °F 13.7 °F 1016.5 in SSW 4.8 mph 11.3 mph 95 % 0.0 in
06:32 14.5 °F 13.5 °F 1016.1 in SW 8.0 mph 11.3 mph 94 % 0.0 in
06:42 14.4 °F 13.4 °F 1015.8 in SSW 4.8 mph 11.3 mph 94 % 0.0 in
06:52 14.3 °F 13.5 °F 1015.8 in SW 6.4 mph 9.7 mph 95 % 0.0 in
07:02 14.4 °F 13.6 °F 1016.1 in West 6.4 mph 11.3 mph 95 % 0.0 in
07:12 14.4 °F 13.6 °F 1016.1 in West 8.0 mph 12.9 mph 95 % 0.0 in
07:17 14.6 °F 13.8 °F 1016.1 in West 11.3 mph 12.9 mph 95 % 0.0 in
07:22 14.6 °F 13.8 °F 1016.1 in West 4.8 mph 12.9 mph 95 % 0.0 in
07:32 14.7 °F 13.7 °F 1016.1 in WSW 8.0 mph 12.9 mph 94 % 0.0 in
07:37 14.7 °F 13.7 °F 1016.1 in WSW 6.4 mph 12.9 mph 94 % 0.0 in
07:42 14.8 °F 13.8 °F 1016.1 in WNW 8.0 mph 12.9 mph 94 % 0.0 in
07:47 14.8 °F 13.8 °F 1016.1 in West 6.4 mph 12.9 mph 94 % 0.0 in
07:52 14.8 °F 13.8 °F 1016.1 in West 3.2 mph 12.9 mph 94 % 0.0 in
08:02 14.9 °F 13.9 °F 1016.5 in SSW 4.8 mph 12.9 mph 94 % 0.0 in
08:07 15.0 °F 14.0 °F 1016.5 in WSW 8.0 mph 14.5 mph 94 % 0.0 in
08:12 15.0 °F 14.0 °F 1016.5 in SW 4.8 mph 14.5 mph 94 % 0.0 in
08:17 15.0 °F 14.0 °F 1016.5 in SW 6.4 mph 12.9 mph 94 % 0.0 in
08:22 15.0 °F 14.0 °F 1016.5 in SW 9.7 mph 12.9 mph 94 % 0.0 in
08:27 15.0 °F 14.0 °F 1016.5 in SW 4.8 mph 14.5 mph 94 % 0.0 in
08:32 15.0 °F 14.0 °F 1016.5 in WSW 4.8 mph 14.5 mph 94 % 0.0 in
08:37 15.1 °F 14.1 °F 1016.8 in SW 3.2 mph 12.9 mph 94 % 0.0 in
08:42 15.1 °F 14.1 °F 1016.8 in SW 3.2 mph 12.9 mph 94 % 0.0 in
08:47 15.2 °F 14.2 °F 1016.8 in SW 1.6 mph 11.3 mph 94 % 0.0 in
08:52 15.1 °F 14.1 °F 1016.8 in West 3.2 mph 11.3 mph 94 % 0.0 in
08:57 15.1 °F 14.1 °F 1016.8 in SW 4.8 mph 6.4 mph 94 % 0.0 in
09:02 15.2 °F 14.2 °F 1016.8 in WSW 1.6 mph 6.4 mph 94 % 0.0 in
09:12 15.3 °F 14.3 °F 1016.8 in SW 1.6 mph 8.0 mph 94 % 0.0 in
09:17 15.2 °F 14.2 °F 1016.8 in SW 3.2 mph 12.9 mph 94 % 0.0 in
09:27 15.2 °F 14.1 °F 1016.8 in SSW 1.6 mph 12.9 mph 93 % 0.0 in
09:32 15.2 °F 14.1 °F 1016.8 in SW 6.4 mph 12.9 mph 93 % 0.0 in
09:42 15.3 °F 14.2 °F 1016.8 in Calm   9.7 mph 93 % 0.0 in
09:47 15.4 °F 14.4 °F 1016.8 in South 1.6 mph 8.0 mph 94 % 0.0 in
09:52 15.5 °F 14.5 °F 1016.8 in SW 6.4 mph 8.0 mph 94 % 0.0 in
09:57 15.5 °F 14.4 °F 1016.8 in WSW 4.8 mph 11.3 mph 93 % 0.0 in
10:02 15.5 °F 14.4 °F 1017.2 in WSW 6.4 mph 11.3 mph 93 % 0.0 in
10:12 15.6 °F 14.5 °F 1017.2 in SW 4.8 mph 14.5 mph 93 % 0.0 in
10:17 15.8 °F 14.5 °F 1017.2 in SSW 3.2 mph 12.9 mph 92 % 0.0 in
10:22 15.9 °F 14.6 °F 1017.2 in SSW 8.0 mph 12.9 mph 92 % 0.0 in
10:32 15.8 °F 14.2 °F 1017.2 in WSW 8.0 mph 11.3 mph 90 % 0.0 in
10:37 15.8 °F 14.2 °F 1017.2 in WSW 4.8 mph 17.7 mph 90 % 0.0 in
10:42 15.9 °F 14.3 °F 1017.2 in SW 8.0 mph 17.7 mph 90 % 0.0 in
10:47 15.9 °F 14.3 °F 1017.2 in SSW 3.2 mph 19.3 mph 90 % 0.0 in
10:52 16.1 °F 14.5 °F 1017.2 in WSW 6.4 mph 19.3 mph 90 % 0.0 in
10:57 16.1 °F 14.3 °F 1017.2 in SW 12.9 mph 19.3 mph 89 % 0.0 in
11:02 16.2 °F 14.4 °F 1017.2 in WSW 11.3 mph 19.3 mph 89 % 0.0 in
11:12 16.3 °F 14.3 °F 1017.5 in SW 9.7 mph 16.1 mph 88 % 0.0 in
11:17 16.4 °F 14.4 °F 1017.5 in SSW 8.0 mph 17.7 mph 88 % 0.0 in
11:22 16.6 °F 14.6 °F 1017.2 in SSW 9.7 mph 17.7 mph 88 % 0.0 in
11:32 16.8 °F 14.6 °F 1017.2 in SW 8.0 mph 16.1 mph 87 % 0.0 in
11:37 17.1 °F 14.9 °F 1017.2 in South 4.8 mph 17.7 mph 87 % 0.0 in
11:42 17.0 °F 14.5 °F 1017.2 in SW 12.9 mph 17.7 mph 85 % 0.0 in
11:47 17.3 °F 14.9 °F 1017.2 in SSW 16.1 mph 19.3 mph 86 % 0.0 in
11:52 17.6 °F 14.9 °F 1017.2 in WSW 9.7 mph 19.3 mph 84 % 0.0 in
12:02 18.2 °F 14.7 °F 1017.2 in SSW 8.0 mph 25.7 mph 80 % 0.0 in
12:12 18.3 °F 14.6 °F 1017.2 in SSW 12.9 mph 22.5 mph 79 % 0.0 in
12:17 18.4 °F 14.9 °F 1017.2 in SSW 12.9 mph 22.5 mph 80 % 0.0 in
12:22 18.5 °F 15.2 °F 1017.2 in WSW 8.0 mph 22.5 mph 81 % 0.0 in
12:32 18.6 °F 14.9 °F 1017.2 in West 8.0 mph 17.7 mph 79 % 0.0 in
12:42 18.9 °F 14.6 °F 1017.2 in West 11.3 mph 19.3 mph 76 % 0.0 in
12:47 19.2 °F 14.9 °F 1017.2 in West 4.8 mph 19.3 mph 76 % 0.0 in
12:57 18.9 °F 14.6 °F 1017.2 in WSW 16.1 mph 19.3 mph 76 % 0.0 in
13:02 18.9 °F 14.6 °F 1017.2 in WSW 4.8 mph 19.3 mph 76 % 0.0 in
13:12 19.2 °F 14.7 °F 1016.8 in WSW 9.7 mph 16.1 mph 75 % 0.0 in
13:17 19.3 °F 14.5 °F 1016.8 in SW 16.1 mph 22.5 mph 74 % 0.0 in
13:22 19.6 °F 14.8 °F 1016.8 in WSW 11.3 mph 22.5 mph 74 % 0.0 in
13:32 19.5 °F 14.7 °F 1016.8 in SSW 4.8 mph 17.7 mph 74 % 0.0 in
13:42 19.9 °F 14.9 °F 1016.8 in SSW 14.5 mph 17.7 mph 73 % 0.0 in
13:47 19.9 °F 15.1 °F 1016.8 in SW 11.3 mph 17.7 mph 74 % 0.0 in
13:52 20.1 °F 15.1 °F 1016.8 in SSW 9.7 mph 20.9 mph 73 % 0.0 in
13:57 20.1 °F 15.1 °F 1016.8 in SSW 4.8 mph 20.9 mph 73 % 0.0 in
14:02 20.2 °F 14.8 °F 1016.5 in SW 12.9 mph 20.9 mph 71 % 0.0 in
14:12 20.6 °F 14.7 °F 1016.5 in West 8.0 mph 24.1 mph 69 % 0.0 in
14:17 21.0 °F 14.4 °F 1016.5 in South 4.8 mph 25.7 mph 66 % 0.0 in
14:22 21.2 °F 14.8 °F 1016.5 in SW 17.7 mph 25.7 mph 67 % 0.0 in
14:27 21.2 °F 14.8 °F 1016.5 in West 8.0 mph 25.7 mph 67 % 0.0 in
14:32 21.4 °F 15.5 °F 1016.5 in West 11.3 mph 24.1 mph 69 % 0.0 in
14:37 21.0 °F 14.6 °F 1016.5 in SW 14.5 mph 29.0 mph 67 % 0.0 in
14:42 20.9 °F 15.0 °F 1016.5 in West 12.9 mph 29.0 mph 69 % 0.0 in
14:47 21.0 °F 14.4 °F 1016.5 in West 9.7 mph 29.0 mph 66 % 0.0 in
14:52 20.9 °F 14.3 °F 1016.5 in SSE 8.0 mph 25.7 mph 66 % 0.0 in
14:57 21.3 °F 14.7 °F 1016.5 in South 12.9 mph 25.7 mph 66 % 0.0 in
15:02 21.4 °F 14.5 °F 1016.5 in SW 9.7 mph 25.7 mph 65 % 0.0 in
15:12 21.7 °F 14.1 °F 1016.5 in West 16.1 mph 27.4 mph 62 % 0.0 in
15:17 21.8 °F 13.9 °F 1016.5 in West 17.7 mph 27.4 mph 61 % 0.0 in
15:22 21.9 °F 13.8 °F 1016.5 in WSW 14.5 mph 27.4 mph 60 % 0.0 in
15:27 21.7 °F 14.1 °F 1016.5 in WSW 9.7 mph 27.4 mph 62 % 0.0 in
15:32 21.8 °F 14.9 °F 1016.1 in SSW 11.3 mph 27.4 mph 65 % 0.0 in
15:37 21.8 °F 13.7 °F 1016.5 in West 11.3 mph 25.7 mph 60 % 0.0 in
15:42 21.8 °F 13.9 °F 1016.1 in SW 12.9 mph 25.7 mph 61 % 0.0 in
15:52 22.3 °F 14.2 °F 1016.1 in SSE 22.5 mph 25.7 mph 60 % 0.0 in
15:57 22.2 °F 13.5 °F 1016.1 in SW 11.3 mph 22.5 mph 58 % 0.0 in
16:02 22.3 °F 14.2 °F 1016.1 in SW 4.8 mph 27.4 mph 60 % 0.0 in
16:07 22.5 °F 14.6 °F 1016.1 in WSW 12.9 mph 27.4 mph 61 % 0.0 in
16:12 22.4 °F 13.7 °F 1016.1 in SW 16.1 mph 22.5 mph 58 % 0.0 in
16:17 22.5 °F 13.8 °F 1016.1 in West 11.3 mph 20.9 mph 58 % 0.0 in
16:22 22.6 °F 14.2 °F 1016.1 in SW 12.9 mph 22.5 mph 59 % 0.0 in
16:32 22.7 °F 13.5 °F 1016.1 in SW 12.9 mph 25.7 mph 56 % 0.0 in
16:37 22.6 °F 13.4 °F 1016.1 in WSW 8.0 mph 25.7 mph 56 % 0.0 in
16:42 22.3 °F 13.4 °F 1016.1 in WSW 9.7 mph 24.1 mph 57 % 0.0 in
16:47 22.3 °F 13.4 °F 1016.1 in West 6.4 mph 24.1 mph 57 % 0.0 in
16:52 22.6 °F 13.4 °F 1015.8 in SW 17.7 mph 19.3 mph 56 % 0.0 in
16:57 22.6 °F 13.4 °F 1015.8 in South 14.5 mph 24.1 mph 56 % 0.0 in
17:02 22.9 °F 14.2 °F 1015.8 in SW 12.9 mph 24.1 mph 58 % 0.0 in
17:07 22.9 °F 13.4 °F 1015.8 in West 14.5 mph 25.7 mph 55 % 0.0 in
17:12 23.2 °F 13.4 °F 1015.8 in WSW 17.7 mph 25.7 mph 54 % 0.0 in
17:17 23.0 °F 12.9 °F 1015.5 in SW 8.0 mph 25.7 mph 53 % 0.0 in
17:22 22.9 °F 13.4 °F 1015.8 in WSW 9.7 mph 25.7 mph 55 % 0.0 in
17:32 23.2 °F 13.9 °F 1015.8 in SSW 12.9 mph 25.7 mph 56 % 0.0 in
17:42 22.8 °F 13.3 °F 1015.5 in South 4.8 mph 22.5 mph 55 % 0.0 in
17:52 23.0 °F 13.5 °F 1015.5 in SSW 8.0 mph 25.7 mph 55 % 0.0 in
18:02 23.1 °F 13.0 °F 1015.5 in SW 8.0 mph 24.1 mph 53 % 0.0 in
18:12 23.0 °F 12.9 °F 1015.5 in SW 17.7 mph 32.2 mph 53 % 0.0 in
18:17 23.1 °F 13.3 °F 1015.5 in SW 27.4 mph 32.2 mph 54 % 0.0 in
18:22 22.8 °F 13.0 °F 1015.5 in SW 9.7 mph 32.2 mph 54 % 0.0 in
18:32 22.9 °F 12.5 °F 1015.1 in WSW 17.7 mph 27.4 mph 52 % 0.0 in
18:42 22.9 °F 12.2 °F 1015.1 in SW 8.0 mph 27.4 mph 51 % 0.0 in
18:47 22.9 °F 12.2 °F 1015.1 in SW 6.4 mph 27.4 mph 51 % 0.0 in
18:52 23.1 °F 12.1 °F 1015.1 in WSW 16.1 mph 27.4 mph 50 % 0.0 in
18:57 23.1 °F 12.4 °F 1015.1 in SW 17.7 mph 22.5 mph 51 % 0.0 in
19:02 23.1 °F 12.4 °F 1014.8 in West 3.2 mph 22.5 mph 51 % 0.0 in
19:12 23.0 °F 12.0 °F 1015.1 in WSW 14.5 mph 22.5 mph 50 % 0.0 in
19:22 22.9 °F 12.5 °F 1015.1 in WSW 12.9 mph 22.5 mph 52 % 0.0 in
19:27 23.1 °F 12.4 °F 1015.1 in SW 9.7 mph 29.0 mph 51 % 0.0 in
19:32 23.1 °F 12.7 °F 1015.1 in WSW 8.0 mph 29.0 mph 52 % 0.0 in
19:42 23.0 °F 12.6 °F 1015.1 in SW 11.3 mph 22.5 mph 52 % 0.0 in
19:47 22.9 °F 12.5 °F 1014.8 in WSW 17.7 mph 24.1 mph 52 % 0.0 in
19:52 22.8 °F 12.1 °F 1015.1 in SW 16.1 mph 29.0 mph 51 % 0.0 in
19:57 22.8 °F 12.4 °F 1015.1 in West 12.9 mph 29.0 mph 52 % 0.0 in
20:02 22.7 °F 12.0 °F 1015.1 in SW 19.3 mph 29.0 mph 51 % 0.0 in
20:12 22.7 °F 12.3 °F 1015.1 in South 6.4 mph 24.1 mph 52 % 0.0 in
20:17 22.6 °F 12.2 °F 1015.1 in WSW 9.7 mph 22.5 mph 52 % 0.0 in
20:22 22.6 °F 12.5 °F 1015.1 in WSW 16.1 mph 22.5 mph 53 % 0.0 in
20:32 22.7 °F 12.6 °F 1015.1 in SW 12.9 mph 27.4 mph 53 % 0.0 in
20:37 22.6 °F 12.8 °F 1015.1 in SW 12.9 mph 27.4 mph 54 % 0.0 in
20:42 22.7 °F 12.9 °F 1015.1 in SW 6.4 mph 22.5 mph 54 % 0.0 in
20:47 22.7 °F 12.6 °F 1015.1 in West 16.1 mph 22.5 mph 53 % 0.0 in
20:52 22.6 °F 12.8 °F 1015.5 in WSW 14.5 mph 22.5 mph 54 % 0.0 in
21:02 22.1 °F 12.6 °F 1015.1 in WSW 8.0 mph 20.9 mph 55 % 0.0 in
21:12 21.8 °F 12.9 °F 1015.1 in SW 3.2 mph 12.9 mph 57 % 0.0 in
21:17 21.7 °F 12.8 °F 1015.1 in WSW 4.8 mph 11.3 mph 57 % 0.0 in
21:22 21.6 °F 13.0 °F 1015.5 in SW 4.8 mph 8.0 mph 58 % 0.0 in
21:27 21.5 °F 12.9 °F 1015.5 in SW 4.8 mph 11.3 mph 58 % 0.0 in
21:32 21.4 °F 13.1 °F 1015.1 in WSW 6.4 mph 11.3 mph 59 % 0.0 in
21:42 21.2 °F 13.1 °F 1015.1 in SW 4.8 mph 11.3 mph 60 % 0.0 in
21:47 21.1 °F 13.3 °F 1015.1 in SW 6.4 mph 9.7 mph 61 % 0.0 in
21:57 20.6 °F 13.3 °F 1015.5 in South 4.8 mph 9.7 mph 63 % 0.0 in
22:02 20.3 °F 13.3 °F 1015.5 in SSW 3.2 mph 8.0 mph 64 % 0.0 in
22:07 20.1 °F 13.3 °F 1015.5 in SW 4.8 mph 6.4 mph 65 % 0.0 in
22:12 20.0 °F 13.5 °F 1015.5 in SSW 4.8 mph 6.4 mph 66 % 0.0 in
22:17 19.9 °F 13.4 °F 1015.5 in SSW 4.8 mph 8.0 mph 66 % 0.0 in
22:22 19.9 °F 13.6 °F 1015.5 in SSW 4.8 mph 8.0 mph 67 % 0.0 in
22:27 19.8 °F 13.5 °F 1015.5 in SW 4.8 mph 6.4 mph 67 % 0.0 in
22:32 19.8 °F 13.7 °F 1015.5 in SW 6.4 mph 11.3 mph 68 % 0.0 in
22:37 19.7 °F 13.9 °F 1015.5 in SSW 8.0 mph 11.3 mph 69 % 0.0 in
22:42 19.6 °F 13.8 °F 1015.5 in SSW 3.2 mph 11.3 mph 69 % 0.0 in
22:47 19.4 °F 13.6 °F 1015.5 in SSW 4.8 mph 9.7 mph 69 % 0.0 in
22:52 19.4 °F 13.8 °F 1015.5 in South 3.2 mph 8.0 mph 70 % 0.0 in
22:57 19.3 °F 13.9 °F 1015.5 in SSW 3.2 mph 6.4 mph 71 % 0.0 in
23:07 19.2 °F 13.8 °F 1015.8 in SSW 3.2 mph 6.4 mph 71 % 0.0 in
23:12 19.3 °F 13.9 °F 1015.5 in SW 4.8 mph 6.4 mph 71 % 0.0 in
23:17 19.3 °F 13.9 °F 1015.5 in SSW 3.2 mph 6.4 mph 71 % 0.0 in
23:22 19.3 °F 14.1 °F 1015.8 in SSW 3.2 mph 6.4 mph 72 % 0.0 in
23:27 19.3 °F 14.1 °F 1015.8 in SSW 4.8 mph 8.0 mph 72 % 0.0 in
23:32 19.2 °F 14.0 °F 1015.8 in SSW 3.2 mph 8.0 mph 72 % 0.0 in
23:37 19.2 °F 14.0 °F 1015.8 in WSW 3.2 mph 8.0 mph 72 % 0.0 in
23:42 19.2 °F 14.0 °F 1015.8 in SW 6.4 mph 8.0 mph 72 % 0.0 in
23:47 19.1 °F 14.1 °F 1015.8 in SSW 3.2 mph 9.7 mph 73 % 0.0 in
23:52 18.9 °F 14.0 °F 1015.8 in SSW 6.4 mph 9.7 mph 73 % 0.0 in
23:57 18.8 °F 14.1 °F 1015.5 in SSW 1.6 mph 9.7 mph 74 % 0.0 in
Meteo18
Compliments of Weather Underground - 4 mb

Script developed by  Jim McMurry - jmcmurry@mwt.net Adapted for the template by  Wim van der Kuil - Leuven-Template.eu

You find our weather info also at:

European Weather Network

Weather Underground

Equipment we use:

Weather-station
Davis Vue

Weather-program
Meteobridge

Weather-server
Raspberry PI 2 B+

Provider
1 and 1

Davis Vue

Meteobridge

Raspberry PI 2 B+

1 and 1